createdAt,value
2023-04-25T00:00:32.964Z,7.90
2023-04-25T00:03:00.819Z,7.90
2023-04-25T00:05:28.576Z,7.90
2023-04-25T00:07:56.208Z,7.80
2023-04-25T00:10:23.591Z,7.70
2023-04-25T00:12:50.812Z,7.70
2023-04-25T00:15:18.799Z,7.50
2023-04-25T00:17:46.832Z,7.40
2023-04-25T00:20:14.171Z,7.20
2023-04-25T00:22:41.422Z,7.10
2023-04-25T00:25:08.908Z,7.10
2023-04-25T00:27:36.261Z,7.10
2023-04-25T00:30:03.824Z,6.80
2023-04-25T00:32:31.159Z,6.70
2023-04-25T00:34:59.102Z,6.70
2023-04-25T00:37:26.522Z,6.80
2023-04-25T00:39:55.916Z,6.80
2023-04-25T00:42:23.349Z,6.90
2023-04-25T00:44:52.673Z,6.90
2023-04-25T00:47:20.540Z,6.60
2023-04-25T00:49:47.974Z,6.50
2023-04-25T00:52:15.525Z,6.50
2023-04-25T00:54:42.908Z,6.40
2023-04-25T00:57:10.262Z,6.50
2023-04-25T00:59:38.645Z,6.40
2023-04-25T01:02:06.585Z,6.30
2023-04-25T01:04:34.304Z,6.30
2023-04-25T01:07:01.596Z,6.40
2023-04-25T01:09:31.153Z,6.30
2023-04-25T01:11:58.729Z,6.20
2023-04-25T01:14:26.049Z,6.20
2023-04-25T01:16:54.157Z,6.10
2023-04-25T01:19:21.719Z,5.80
2023-04-25T01:21:49.381Z,5.60
2023-04-25T01:24:17.240Z,5.60
2023-04-25T01:26:50.933Z,5.80
2023-04-25T01:29:21.663Z,5.80
2023-04-25T01:31:49.307Z,5.80
2023-04-25T01:34:16.654Z,5.60
2023-04-25T01:36:44.022Z,5.60
2023-04-25T01:39:11.509Z,5.60
2023-04-25T01:41:38.875Z,5.50
2023-04-25T01:44:06.652Z,5.40
2023-04-25T01:46:35.584Z,5.40
2023-04-25T01:49:03.358Z,5.50
2023-04-25T01:51:31.530Z,5.50
2023-04-25T01:54:00.866Z,5.40
2023-04-25T01:56:32.795Z,5.40
2023-04-25T01:59:00.407Z,5.10
2023-04-25T02:01:27.790Z,5.30
2023-04-25T02:03:55.848Z,5.40
2023-04-25T02:06:23.447Z,5.40
2023-04-25T02:08:51.303Z,5.30
2023-04-25T02:11:18.865Z,5.50
2023-04-25T02:13:46.305Z,5.40
2023-04-25T02:16:14.323Z,5.20
2023-04-25T02:18:41.570Z,5.30
2023-04-25T02:21:08.822Z,5.20
2023-04-25T02:23:36.626Z,5.30
2023-04-25T02:26:04.045Z,5.20
2023-04-25T02:28:31.558Z,5.10
2023-04-25T02:30:58.819Z,5.10
2023-04-25T02:33:26.106Z,5.10
2023-04-25T02:35:53.400Z,5.10
2023-04-25T02:38:20.642Z,5.10
2023-04-25T02:40:47.850Z,5.20
2023-04-25T02:43:15.059Z,5.00
2023-04-25T02:45:42.256Z,4.90
2023-04-25T02:48:09.499Z,4.90
2023-04-25T02:50:36.772Z,4.90
2023-04-25T02:53:03.990Z,4.90
2023-04-25T02:55:31.254Z,4.80
2023-04-25T02:57:58.512Z,4.70
2023-04-25T03:00:25.921Z,4.80
2023-04-25T03:02:53.230Z,4.80
2023-04-25T03:05:20.640Z,4.70
2023-04-25T03:07:47.908Z,4.50
2023-04-25T03:10:15.136Z,4.50
2023-04-25T03:12:42.361Z,4.60
2023-04-25T03:15:09.918Z,4.50
2023-04-25T03:17:37.432Z,4.60
2023-04-25T03:20:05.298Z,4.60
2023-04-25T03:22:32.683Z,4.70
2023-04-25T03:24:59.933Z,4.70
2023-04-25T03:27:27.363Z,4.60
2023-04-25T03:29:54.868Z,4.60
2023-04-25T03:32:22.453Z,4.40
2023-04-25T03:34:49.960Z,4.20
2023-04-25T03:37:17.781Z,4.10
2023-04-25T03:39:45.011Z,4.20
2023-04-25T03:42:12.202Z,4.30
2023-04-25T03:44:39.398Z,4.30
2023-04-25T03:47:07.178Z,4.40
2023-04-25T03:49:37.140Z,4.40
2023-04-25T03:52:04.874Z,4.20
2023-04-25T03:54:32.384Z,4.20
2023-04-25T03:56:59.766Z,3.90
2023-04-25T03:59:27.275Z,3.80
2023-04-25T04:01:55.075Z,3.70
2023-04-25T04:04:22.643Z,3.80
2023-04-25T04:06:50.064Z,3.80
2023-04-25T04:09:19.049Z,3.90
2023-04-25T04:11:46.334Z,4.00
2023-04-25T04:14:13.617Z,3.90
2023-04-25T04:16:40.923Z,3.80
2023-04-25T04:19:08.551Z,3.90
2023-04-25T04:21:35.809Z,3.80
2023-04-25T04:24:03.106Z,4.00
2023-04-25T04:26:30.349Z,4.00
2023-04-25T04:28:57.558Z,4.00
2023-04-25T04:31:25.041Z,3.90
2023-04-25T04:33:53.152Z,4.10
2023-04-25T04:36:24.175Z,3.90
2023-04-25T04:38:51.419Z,3.90
2023-04-25T04:41:18.657Z,4.10
2023-04-25T04:43:46.024Z,4.20
2023-04-25T04:46:13.958Z,4.30
2023-04-25T04:48:41.279Z,4.50
2023-04-25T04:51:08.472Z,4.60
2023-04-25T04:53:35.786Z,4.70
2023-04-25T04:56:03.110Z,4.70
2023-04-25T04:58:30.997Z,4.90
2023-04-25T05:00:58.319Z,4.80
2023-04-25T05:03:25.827Z,4.90
2023-04-25T05:05:53.213Z,5.00
2023-04-25T05:08:20.486Z,5.00
2023-04-25T05:10:47.811Z,5.10
2023-04-25T05:13:15.070Z,5.20
2023-04-25T05:15:42.302Z,5.30
2023-04-25T05:18:09.555Z,5.40
2023-04-25T05:20:36.883Z,5.50
2023-04-25T05:23:05.083Z,5.60
2023-04-25T05:25:32.440Z,5.70
2023-04-25T05:27:59.840Z,5.80
2023-04-25T05:30:27.156Z,6.00
2023-04-25T05:32:54.536Z,6.10
2023-04-25T05:35:22.045Z,6.10
2023-04-25T05:37:49.379Z,6.20
2023-04-25T05:40:16.697Z,6.40
2023-04-25T05:42:44.009Z,6.60
2023-04-25T05:45:11.391Z,6.60
2023-04-25T05:47:38.683Z,6.80
2023-04-25T05:50:06.821Z,6.90
2023-04-25T05:52:34.118Z,7.10
2023-04-25T05:55:01.319Z,7.20
2023-04-25T05:57:28.826Z,7.40
2023-04-25T05:59:56.126Z,7.60
2023-04-25T06:02:23.833Z,7.70
2023-04-25T06:04:52.293Z,7.80
2023-04-25T06:07:20.976Z,8.00
2023-04-25T06:09:48.402Z,8.00
2023-04-25T06:12:15.581Z,8.10
2023-04-25T06:14:42.893Z,8.30
2023-04-25T06:17:10.205Z,8.40
2023-04-25T06:19:37.741Z,8.50
2023-04-25T06:22:05.044Z,8.70
2023-04-25T06:24:32.246Z,8.80
2023-04-25T06:26:59.539Z,9.00
2023-04-25T06:29:26.803Z,9.20
2023-04-25T06:31:54.123Z,9.30
2023-04-25T06:34:21.650Z,9.50
2023-04-25T06:36:48.961Z,9.60
2023-04-25T06:39:16.208Z,9.70
2023-04-25T06:41:43.446Z,9.90
2023-04-25T06:44:10.611Z,10.20
2023-04-25T06:46:38.814Z,10.20
2023-04-25T06:49:06.435Z,10.30
2023-04-25T06:51:33.768Z,10.60
2023-04-25T06:54:01.239Z,10.70
2023-04-25T06:56:30.758Z,10.70
2023-04-25T06:58:57.986Z,10.90
2023-04-25T07:01:25.330Z,11.00
2023-04-25T07:03:52.970Z,11.30
2023-04-25T07:06:20.517Z,11.30
2023-04-25T07:08:47.890Z,11.40
2023-04-25T07:11:15.116Z,11.60
2023-04-25T07:13:42.363Z,11.70
2023-04-25T07:16:09.590Z,11.80
2023-04-25T07:18:36.860Z,12.10
2023-04-25T07:21:04.277Z,12.20
2023-04-25T07:23:31.552Z,12.30
2023-04-25T07:25:58.955Z,12.40
2023-04-25T07:28:26.188Z,12.50
2023-04-25T07:30:53.733Z,12.70
2023-04-25T07:33:21.617Z,13.10
2023-04-25T07:35:48.943Z,12.70
2023-04-25T07:38:16.140Z,12.90
2023-04-25T07:40:43.446Z,12.40
2023-04-25T07:43:13.267Z,12.90
2023-04-25T07:45:40.666Z,13.10
2023-04-25T07:48:07.956Z,13.00
2023-04-25T07:50:35.357Z,13.10
2023-04-25T07:53:02.737Z,13.30
2023-04-25T07:55:29.967Z,13.00
2023-04-25T07:57:57.195Z,13.30
2023-04-25T08:00:24.563Z,13.40
2023-04-25T08:02:52.410Z,13.20
2023-04-25T08:05:22.341Z,13.40
2023-04-25T08:07:50.734Z,13.30
2023-04-25T08:10:18.419Z,13.50
2023-04-25T08:12:45.667Z,13.80
2023-04-25T08:15:14.805Z,13.80
2023-04-25T08:17:42.412Z,14.10
2023-04-25T08:20:10.126Z,14.10
2023-04-25T08:22:37.425Z,14.10
2023-04-25T08:25:05.104Z,13.70
2023-04-25T08:27:32.367Z,13.90
2023-04-25T08:29:59.895Z,13.70
2023-04-25T08:32:29.022Z,13.50
2023-04-25T08:34:57.592Z,13.40
2023-04-25T08:37:24.853Z,13.40
2023-04-25T08:39:54.320Z,13.30
2023-04-25T08:42:24.045Z,13.10
2023-04-25T08:44:54.141Z,13.00
2023-04-25T08:47:23.832Z,13.40
2023-04-25T08:49:52.795Z,13.10
2023-04-25T08:52:24.061Z,13.10
2023-04-25T08:54:53.860Z,12.80
2023-04-25T08:57:22.206Z,12.80
2023-04-25T08:59:50.452Z,13.00
2023-04-25T09:02:21.089Z,12.80
2023-04-25T09:04:49.728Z,13.00
2023-04-25T09:07:19.721Z,12.80
2023-04-25T09:09:47.071Z,12.90
2023-04-25T09:12:14.856Z,13.00
2023-04-25T09:14:43.864Z,13.40
2023-04-25T09:17:11.419Z,13.50
2023-04-25T09:19:42.541Z,13.80
2023-04-25T09:22:10.225Z,13.40
2023-04-25T09:24:42.605Z,13.50
2023-04-25T09:27:18.920Z,13.90
2023-04-25T09:29:47.415Z,13.80
2023-04-25T09:32:20.890Z,13.70
2023-04-25T09:34:58.297Z,14.30
2023-04-25T09:37:27.556Z,13.50
2023-04-25T09:40:08.477Z,13.70
2023-04-25T09:42:36.505Z,13.60
2023-04-25T09:45:05.036Z,13.80
2023-04-25T09:47:33.151Z,13.50
2023-04-25T09:50:00.537Z,13.80
2023-04-25T09:52:27.798Z,14.00
2023-04-25T09:54:55.097Z,14.50
2023-04-25T09:57:24.592Z,14.50
2023-04-25T09:59:54.377Z,14.30
2023-04-25T10:02:26.984Z,14.90
2023-04-25T10:04:56.486Z,15.50
2023-04-25T10:07:29.508Z,15.90
2023-04-25T10:10:02.907Z,16.20
2023-04-25T10:12:32.364Z,16.50
2023-04-25T10:15:01.579Z,16.90
2023-04-25T10:17:29.439Z,16.60
2023-04-25T10:19:57.584Z,16.40
2023-04-25T10:22:35.357Z,16.10
2023-04-25T10:25:07.131Z,16.40
2023-04-25T10:27:35.548Z,16.80
2023-04-25T10:30:07.421Z,16.20
2023-04-25T10:32:34.936Z,15.70
2023-04-25T10:35:13.469Z,15.40
2023-04-25T10:38:04.801Z,14.90
2023-04-25T10:40:35.530Z,15.00
2023-04-25T10:43:37.993Z,15.60
2023-04-25T10:46:19.229Z,15.70
2023-04-25T10:48:57.664Z,15.70
2023-04-25T10:51:34.618Z,16.00
2023-04-25T10:54:09.864Z,16.00
2023-04-25T10:56:42.578Z,16.30
2023-04-25T10:59:20.008Z,16.30
2023-04-25T11:01:52.760Z,16.60
2023-04-25T11:04:31.400Z,16.40
2023-04-25T11:07:09.364Z,16.60
2023-04-25T11:09:39.173Z,16.60
2023-04-25T11:12:08.350Z,16.30
2023-04-25T11:14:35.891Z,16.40
2023-04-25T11:17:03.746Z,16.40
2023-04-25T11:19:31.453Z,16.70
2023-04-25T11:22:02.846Z,16.70
2023-04-25T11:24:35.705Z,16.70
2023-04-25T11:27:04.897Z,16.70
2023-04-25T11:29:34.347Z,16.60
2023-04-25T11:32:02.470Z,16.30
2023-04-25T11:34:34.425Z,15.90
2023-04-25T11:37:03.535Z,15.70
2023-04-25T11:39:31.086Z,15.60
2023-04-25T11:41:59.749Z,15.20
2023-04-25T11:44:27.271Z,15.00
2023-04-25T11:46:54.520Z,14.60
2023-04-25T11:49:23.148Z,14.20
2023-04-25T11:51:50.706Z,14.10
2023-04-25T11:54:18.114Z,14.10
2023-04-25T11:56:46.479Z,14.30
2023-04-25T11:59:14.317Z,14.00
2023-04-25T12:01:48.174Z,14.60
2023-04-25T12:04:23.600Z,14.80
2023-04-25T12:06:53.822Z,14.30
2023-04-25T12:09:28.413Z,14.30
2023-04-25T12:11:57.647Z,14.70
2023-04-25T12:14:36.179Z,14.80
2023-04-25T12:17:07.421Z,15.60
2023-04-25T12:19:36.804Z,15.70
2023-04-25T12:22:05.080Z,15.40
2023-04-25T12:24:38.386Z,15.90
2023-04-25T12:27:09.351Z,15.80
2023-04-25T12:32:07.392Z,16.30
2023-04-25T12:34:36.939Z,16.40
2023-04-25T12:37:04.489Z,16.20
2023-04-25T12:39:31.682Z,16.10
2023-04-25T12:44:27.435Z,16.80
2023-04-25T12:46:55.681Z,16.40
2023-04-25T12:49:23.526Z,15.70
2023-04-25T12:51:52.604Z,15.60
2023-04-25T12:54:19.924Z,15.70
2023-04-25T12:56:47.399Z,15.80
2023-04-25T12:59:14.655Z,15.70
2023-04-25T13:01:42.030Z,15.70
2023-04-25T13:04:09.569Z,15.70
2023-04-25T13:06:37.202Z,15.70
2023-04-25T13:09:04.798Z,15.90
2023-04-25T13:11:32.471Z,15.80
2023-04-25T13:13:59.927Z,15.70
2023-04-25T13:16:27.230Z,15.50
2023-04-25T13:18:54.563Z,15.50
2023-04-25T13:21:21.881Z,15.80
2023-04-25T13:23:49.370Z,15.90
2023-04-25T13:26:17.558Z,15.70
2023-04-25T13:28:45.164Z,15.80
2023-04-25T13:31:12.485Z,15.50
2023-04-25T13:33:39.761Z,15.40
2023-04-25T13:36:07.085Z,15.60
2023-04-25T13:38:34.476Z,15.40
2023-04-25T13:41:02.142Z,15.40
2023-04-25T13:43:29.356Z,15.20
2023-04-25T13:45:56.618Z,15.30
2023-04-25T13:48:25.638Z,15.30
2023-04-25T13:50:52.847Z,14.90
2023-04-25T13:53:20.097Z,15.40
2023-04-25T13:55:47.346Z,15.40
2023-04-25T13:58:14.505Z,15.10
2023-04-25T14:00:44.433Z,15.30
2023-04-25T14:03:11.984Z,15.40
2023-04-25T14:05:40.132Z,15.50
2023-04-25T14:08:09.314Z,15.50
2023-04-25T14:10:37.589Z,15.80
2023-04-25T14:13:05.700Z,16.00
2023-04-25T14:15:33.812Z,16.50
2023-04-25T14:18:02.269Z,16.40
2023-04-25T14:20:30.463Z,16.40
2023-04-25T14:22:59.212Z,16.60
2023-04-25T14:25:26.888Z,16.50
2023-04-25T14:27:54.278Z,16.10
2023-04-25T14:30:22.613Z,15.80
2023-04-25T14:32:51.043Z,15.50
2023-04-25T14:35:18.872Z,15.60
2023-04-25T14:37:46.216Z,15.10
2023-04-25T14:40:14.428Z,15.30
2023-04-25T14:42:42.052Z,15.10
2023-04-25T14:45:10.074Z,15.20
2023-04-25T14:47:40.549Z,15.00
2023-04-25T14:50:09.607Z,15.10
2023-04-25T14:52:37.301Z,14.90
2023-04-25T14:55:08.449Z,14.60
2023-04-25T14:57:36.181Z,14.50
2023-04-25T15:00:07.895Z,14.50
2023-04-25T15:02:35.820Z,14.70
2023-04-25T15:05:04.423Z,14.50
2023-04-25T15:07:31.831Z,15.00
2023-04-25T15:09:59.088Z,15.30
2023-04-25T15:12:29.202Z,15.50
2023-04-25T15:14:56.723Z,15.80
2023-04-25T15:17:23.997Z,15.40
2023-04-25T15:19:51.327Z,15.60
2023-04-25T15:22:18.543Z,15.70
2023-04-25T15:24:45.895Z,15.40
2023-04-25T15:27:14.215Z,15.10
2023-04-25T15:29:41.420Z,15.20
2023-04-25T15:32:08.732Z,15.20
2023-04-25T15:34:36.540Z,15.10
2023-04-25T15:37:04.069Z,15.60
2023-04-25T15:39:34.697Z,15.40
2023-04-25T15:42:02.560Z,15.70
2023-04-25T15:44:29.818Z,15.60
2023-04-25T15:46:57.006Z,15.80
2023-04-25T15:49:24.396Z,15.20
2023-04-25T15:51:51.663Z,14.70
2023-04-25T15:54:19.000Z,14.80
2023-04-25T15:56:47.025Z,14.20
2023-04-25T15:59:14.524Z,13.90
2023-04-25T16:01:41.933Z,13.70
2023-04-25T16:04:09.457Z,13.90
2023-04-25T16:06:36.835Z,13.90
2023-04-25T16:09:04.690Z,13.40
2023-04-25T16:11:32.135Z,13.90
2023-04-25T16:13:59.400Z,13.60
2023-04-25T16:16:26.786Z,13.70
2023-04-25T16:18:54.051Z,14.00
2023-04-25T16:21:21.392Z,14.00
2023-04-25T16:23:48.704Z,14.00
2023-04-25T16:26:16.074Z,14.10
2023-04-25T16:28:43.340Z,14.00
2023-04-25T16:31:10.839Z,13.80
2023-04-25T16:33:38.102Z,13.70
2023-04-25T16:36:05.755Z,13.40
2023-04-25T16:38:33.003Z,13.50
2023-04-25T16:41:00.396Z,13.20
2023-04-25T16:43:27.620Z,13.30
2023-04-25T16:45:54.875Z,13.30
2023-04-25T16:48:24.448Z,12.80
2023-04-25T16:50:52.867Z,12.80
2023-04-25T16:53:22.145Z,12.80
2023-04-25T16:55:49.529Z,12.80
2023-04-25T16:58:17.047Z,12.70
2023-04-25T17:00:44.487Z,12.40
2023-04-25T17:03:11.980Z,12.30
2023-04-25T17:05:39.565Z,12.30
2023-04-25T17:08:06.907Z,12.00
2023-04-25T17:10:34.246Z,11.90
2023-04-25T17:13:01.558Z,11.90
2023-04-25T17:15:28.883Z,11.60
2023-04-25T17:17:56.500Z,11.60
2023-04-25T17:20:23.763Z,11.70
2023-04-25T17:22:51.085Z,11.70
2023-04-25T17:25:18.372Z,11.60
2023-04-25T17:27:45.688Z,11.40
2023-04-25T17:30:13.241Z,11.40
2023-04-25T17:32:40.520Z,11.40
2023-04-25T17:35:08.050Z,11.30
2023-04-25T17:37:35.484Z,11.20
2023-04-25T17:40:04.824Z,11.20
2023-04-25T17:42:32.189Z,10.90
2023-04-25T17:44:59.411Z,10.90
2023-04-25T17:47:26.747Z,11.00
2023-04-25T17:49:54.867Z,11.00
2023-04-25T17:52:22.357Z,10.90
2023-04-25T17:54:49.816Z,10.90
2023-04-25T17:57:17.424Z,10.80
2023-04-25T17:59:44.940Z,10.70
2023-04-25T18:02:12.237Z,10.80
2023-04-25T18:04:39.635Z,10.60
2023-04-25T18:07:07.508Z,10.60
2023-04-25T18:09:35.573Z,10.60
2023-04-25T18:12:03.730Z,10.50
2023-04-25T18:14:31.085Z,10.40
2023-04-25T18:16:58.286Z,10.50
2023-04-25T18:19:25.719Z,10.50
2023-04-25T18:21:54.798Z,10.30
2023-04-25T18:24:28.475Z,10.50
2023-04-25T18:26:56.934Z,10.00
2023-04-25T18:29:33.119Z,10.00
2023-04-25T18:32:02.248Z,9.80
2023-04-25T18:34:30.058Z,9.60
2023-04-25T18:36:58.062Z,9.40
2023-04-25T18:39:27.743Z,9.30
2023-04-25T18:42:04.175Z,9.30
2023-04-25T18:44:39.400Z,9.20
2023-04-25T18:47:09.295Z,9.30
2023-04-25T18:49:37.687Z,9.30
2023-04-25T18:52:05.599Z,9.00
2023-04-25T18:54:32.897Z,8.90
2023-04-25T18:57:01.204Z,8.80
2023-04-25T18:59:28.579Z,8.70
2023-04-25T19:01:56.163Z,8.60
2023-04-25T19:04:23.640Z,8.60
2023-04-25T19:06:51.470Z,8.50
2023-04-25T19:09:18.928Z,8.40
2023-04-25T19:11:46.559Z,8.40
2023-04-25T19:14:16.577Z,8.10
2023-04-25T19:16:44.158Z,7.80
2023-04-25T19:19:11.696Z,7.40
2023-04-25T19:21:39.204Z,7.40
2023-04-25T19:24:07.235Z,7.30
2023-04-25T19:26:36.324Z,7.40
2023-04-25T19:29:07.305Z,7.40
2023-04-25T19:31:37.040Z,7.50
2023-04-25T19:34:05.953Z,7.60
2023-04-25T19:36:34.292Z,7.70
2023-04-25T19:39:04.630Z,7.60
2023-04-25T19:41:36.139Z,7.60
2023-04-25T19:44:06.210Z,7.80
2023-04-25T19:46:35.829Z,7.80
2023-04-25T19:49:07.040Z,7.80
2023-04-25T19:51:35.505Z,7.90
2023-04-25T19:54:02.930Z,7.90
2023-04-25T19:56:30.418Z,7.60
2023-04-25T19:59:00.389Z,7.60
2023-04-25T20:01:28.094Z,8.00
2023-04-25T20:03:56.134Z,8.00
2023-04-25T20:06:23.841Z,8.30
2023-04-25T20:08:53.665Z,8.10
2023-04-25T20:11:21.918Z,8.00
2023-04-25T20:13:49.259Z,7.90
2023-04-25T20:16:19.808Z,7.70
2023-04-25T20:18:48.932Z,7.50
2023-04-25T20:21:17.426Z,6.90
2023-04-25T20:23:45.000Z,6.70
2023-04-25T20:26:12.939Z,6.70
2023-04-25T20:28:41.923Z,6.80
2023-04-25T20:31:10.953Z,6.80
2023-04-25T20:33:38.866Z,6.80
2023-04-25T20:36:06.316Z,6.60
2023-04-25T20:38:33.724Z,6.60
2023-04-25T20:41:01.147Z,6.60
2023-04-25T20:43:29.280Z,6.70
2023-04-25T20:45:57.493Z,6.60
2023-04-25T20:48:24.791Z,6.60
2023-04-25T20:50:52.189Z,6.60
2023-04-25T20:53:19.574Z,6.60
2023-04-25T20:55:47.320Z,6.50
2023-04-25T20:58:15.151Z,6.50
2023-04-25T21:00:42.543Z,6.20
2023-04-25T21:03:10.593Z,6.20
2023-04-25T21:05:38.025Z,6.00
2023-04-25T21:08:05.922Z,5.90
2023-04-25T21:10:34.085Z,6.00
2023-04-25T21:13:03.025Z,5.90
2023-04-25T21:15:30.505Z,5.90
2023-04-25T21:17:57.856Z,6.00
2023-04-25T21:20:25.425Z,6.10
2023-04-25T21:22:54.126Z,6.00
2023-04-25T21:25:31.714Z,6.00
2023-04-25T21:27:59.796Z,6.10
2023-04-25T21:30:27.546Z,6.10
2023-04-25T21:32:54.949Z,6.20
2023-04-25T21:35:23.032Z,6.20
2023-04-25T21:37:50.927Z,6.20
2023-04-25T21:40:18.525Z,6.10
2023-04-25T21:42:50.130Z,6.10
2023-04-25T21:45:17.839Z,6.10
2023-04-25T21:47:46.740Z,6.10
2023-04-25T21:50:15.165Z,6.00
2023-04-25T21:52:42.620Z,6.00
2023-04-25T21:55:10.752Z,6.10
2023-04-25T21:57:38.006Z,6.30
2023-04-25T22:00:13.725Z,6.20
2023-04-25T22:02:41.701Z,6.20
2023-04-25T22:05:09.178Z,6.20
2023-04-25T22:07:36.467Z,6.40
2023-04-25T22:10:03.908Z,6.40
2023-04-25T22:12:31.165Z,6.40
2023-04-25T22:14:58.521Z,6.50
2023-04-25T22:17:27.148Z,6.60
2023-04-25T22:19:54.417Z,6.60
2023-04-25T22:22:21.781Z,6.50
2023-04-25T22:24:49.884Z,6.50
2023-04-25T22:27:17.503Z,6.50
2023-04-25T22:29:44.704Z,6.50
2023-04-25T22:32:11.998Z,6.40
2023-04-25T22:34:39.196Z,6.30
2023-04-25T22:37:06.392Z,6.30
2023-04-25T22:39:33.621Z,6.30
2023-04-25T22:42:00.834Z,6.20
2023-04-25T22:44:28.278Z,6.30
2023-04-25T22:46:55.612Z,6.30
2023-04-25T22:49:22.828Z,6.30
2023-04-25T22:51:54.255Z,6.20
2023-04-25T22:54:21.920Z,6.20
2023-04-25T22:56:49.134Z,6.10
2023-04-25T22:59:16.398Z,6.10
2023-04-25T23:01:43.898Z,6.20
2023-04-25T23:04:11.562Z,6.40
2023-04-25T23:06:40.406Z,6.50
2023-04-25T23:09:09.817Z,6.50
2023-04-25T23:11:37.328Z,6.70
2023-04-25T23:14:04.686Z,6.70
2023-04-25T23:16:32.066Z,6.80
2023-04-25T23:18:59.691Z,6.90
2023-04-25T23:21:26.894Z,7.00
2023-04-25T23:23:54.571Z,7.00
2023-04-25T23:26:21.981Z,7.20
2023-04-25T23:28:49.294Z,7.10
2023-04-25T23:31:16.612Z,7.10
2023-04-25T23:33:43.898Z,7.10
2023-04-25T23:36:21.465Z,7.40
2023-04-25T23:38:50.548Z,7.30
2023-04-25T23:41:18.228Z,7.60
2023-04-25T23:43:45.791Z,7.70
2023-04-25T23:46:13.617Z,7.70
2023-04-25T23:48:41.642Z,7.70
2023-04-25T23:51:08.868Z,7.60
2023-04-25T23:53:36.424Z,7.60
2023-04-25T23:56:05.271Z,7.50
2023-04-25T23:58:32.471Z,7.40
